sensor_id;sensor_type;location;lat;lon;timestamp;P1;durP1;ratioP1;P2;durP2;ratioP2
58758;SDS011;46777;47.482;19.054;2022-10-14T00:00:13;24.45;;;21.95;;
58758;SDS011;46777;47.482;19.054;2022-10-14T00:02:58;23.40;;;20.90;;
58758;SDS011;46777;47.482;19.054;2022-10-14T00:05:42;24.42;;;21.55;;
58758;SDS011;46777;47.482;19.054;2022-10-14T00:08:27;28.42;;;22.05;;
58758;SDS011;46777;47.482;19.054;2022-10-14T00:11:12;27.80;;;22.05;;
58758;SDS011;46777;47.482;19.054;2022-10-14T00:13:57;26.30;;;22.80;;
58758;SDS011;46777;47.482;19.054;2022-10-14T00:16:43;28.05;;;23.40;;
58758;SDS011;46777;47.482;19.054;2022-10-14T00:19:28;24.40;;;21.77;;
58758;SDS011;46777;47.482;19.054;2022-10-14T00:22:12;24.73;;;22.23;;
58758;SDS011;46777;47.482;19.054;2022-10-14T00:24:56;26.40;;;22.80;;
58758;SDS011;46777;47.482;19.054;2022-10-14T00:27:41;25.38;;;22.75;;
58758;SDS011;46777;47.482;19.054;2022-10-14T00:30:25;25.23;;;22.75;;
58758;SDS011;46777;47.482;19.054;2022-10-14T00:33:09;25.92;;;23.00;;
58758;SDS011;46777;47.482;19.054;2022-10-14T00:38:37;27.33;;;23.02;;
58758;SDS011;46777;47.482;19.054;2022-10-14T00:41:26;25.55;;;22.92;;
58758;SDS011;46777;47.482;19.054;2022-10-14T00:46:57;25.20;;;22.42;;
58758;SDS011;46777;47.482;19.054;2022-10-14T00:49:42;25.17;;;22.50;;
58758;SDS011;46777;47.482;19.054;2022-10-14T00:52:27;23.70;;;21.42;;
58758;SDS011;46777;47.482;19.054;2022-10-14T00:55:15;27.48;;;22.33;;
58758;SDS011;46777;47.482;19.054;2022-10-14T00:57:59;24.45;;;22.05;;
58758;SDS011;46777;47.482;19.054;2022-10-14T01:00:43;25.63;;;22.40;;
58758;SDS011;46777;47.482;19.054;2022-10-14T01:03:28;24.23;;;21.65;;
58758;SDS011;46777;47.482;19.054;2022-10-14T01:23:40;27.17;;;24.10;;
58758;SDS011;46777;47.482;19.054;2022-10-14T01:31:59;25.38;;;22.75;;
58758;SDS011;46777;47.482;19.054;2022-10-14T01:35:33;25.10;;;21.83;;
58758;SDS011;46777;47.482;19.054;2022-10-14T01:37:51;26.25;;;22.15;;
58758;SDS011;46777;47.482;19.054;2022-10-14T01:40:39;24.40;;;21.98;;
58758;SDS011;46777;47.482;19.054;2022-10-14T01:43:24;25.45;;;22.80;;
58758;SDS011;46777;47.482;19.054;2022-10-14T01:46:10;25.02;;;22.38;;
58758;SDS011;46777;47.482;19.054;2022-10-14T01:48:59;24.85;;;22.10;;
58758;SDS011;46777;47.482;19.054;2022-10-14T01:51:46;24.70;;;21.98;;
58758;SDS011;46777;47.482;19.054;2022-10-14T01:54:33;23.75;;;21.35;;
58758;SDS011;46777;47.482;19.054;2022-10-14T01:57:20;23.90;;;21.52;;
58758;SDS011;46777;47.482;19.054;2022-10-14T02:00:06;23.52;;;20.90;;
58758;SDS011;46777;47.482;19.054;2022-10-14T02:02:52;23.15;;;20.80;;
58758;SDS011;46777;47.482;19.054;2022-10-14T02:05:37;21.85;;;19.83;;
58758;SDS011;46777;47.482;19.054;2022-10-14T02:08:27;23.45;;;19.58;;
58758;SDS011;46777;47.482;19.054;2022-10-14T02:11:17;22.67;;;20.20;;
58758;SDS011;46777;47.482;19.054;2022-10-14T02:14:17;20.13;;;18.13;;
58758;SDS011;46777;47.482;19.054;2022-10-14T02:17:06;23.52;;;21.13;;
58758;SDS011;46777;47.482;19.054;2022-10-14T02:20:04;23.13;;;20.85;;
58758;SDS011;46777;47.482;19.054;2022-10-14T02:22:51;23.73;;;21.33;;
58758;SDS011;46777;47.482;19.054;2022-10-14T02:25:38;25.02;;;22.52;;
58758;SDS011;46777;47.482;19.054;2022-10-14T02:28:24;24.98;;;22.50;;
58758;SDS011;46777;47.482;19.054;2022-10-14T02:31:10;24.40;;;21.85;;
58758;SDS011;46777;47.482;19.054;2022-10-14T02:33:57;24.27;;;21.90;;
58758;SDS011;46777;47.482;19.054;2022-10-14T02:36:42;24.73;;;22.27;;
58758;SDS011;46777;47.482;19.054;2022-10-14T02:39:29;25.52;;;22.83;;
58758;SDS011;46777;47.482;19.054;2022-10-14T02:42:14;25.70;;;23.08;;
58758;SDS011;46777;47.482;19.054;2022-10-14T02:44:59;25.20;;;22.77;;
58758;SDS011;46777;47.482;19.054;2022-10-14T02:47:44;25.45;;;22.83;;
58758;SDS011;46777;47.482;19.054;2022-10-14T02:50:28;26.13;;;23.48;;
58758;SDS011;46777;47.482;19.054;2022-10-14T02:53:13;25.23;;;22.45;;
58758;SDS011;46777;47.482;19.054;2022-10-14T02:55:57;25.17;;;22.67;;
58758;SDS011;46777;47.482;19.054;2022-10-14T02:58:41;25.08;;;22.48;;
58758;SDS011;46777;47.482;19.054;2022-10-14T03:01:25;25.80;;;23.13;;
58758;SDS011;46777;47.482;19.054;2022-10-14T03:04:10;26.38;;;23.67;;
58758;SDS011;46777;47.482;19.054;2022-10-14T03:06:54;24.55;;;22.05;;
58758;SDS011;46777;47.482;19.054;2022-10-14T03:09:38;26.92;;;23.90;;
58758;SDS011;46777;47.482;19.054;2022-10-14T03:12:22;26.83;;;24.30;;
58758;SDS011;46777;47.482;19.054;2022-10-14T03:15:07;26.85;;;24.25;;
58758;SDS011;46777;47.482;19.054;2022-10-14T03:17:52;27.48;;;24.15;;
58758;SDS011;46777;47.482;19.054;2022-10-14T03:20:36;26.83;;;24.23;;
58758;SDS011;46777;47.482;19.054;2022-10-14T03:23:21;27.38;;;24.55;;
58758;SDS011;46777;47.482;19.054;2022-10-14T03:26:05;29.77;;;26.55;;
58758;SDS011;46777;47.482;19.054;2022-10-14T03:28:49;29.58;;;26.58;;
58758;SDS011;46777;47.482;19.054;2022-10-14T03:31:33;28.80;;;25.90;;
58758;SDS011;46777;47.482;19.054;2022-10-14T03:34:17;29.60;;;26.65;;
58758;SDS011;46777;47.482;19.054;2022-10-14T03:37:02;30.23;;;26.92;;
58758;SDS011;46777;47.482;19.054;2022-10-14T03:39:46;30.35;;;27.15;;
58758;SDS011;46777;47.482;19.054;2022-10-14T03:42:30;30.45;;;27.17;;
58758;SDS011;46777;47.482;19.054;2022-10-14T03:45:14;30.67;;;26.77;;
58758;SDS011;46777;47.482;19.054;2022-10-14T03:47:59;31.23;;;28.00;;
58758;SDS011;46777;47.482;19.054;2022-10-14T03:50:43;30.90;;;27.70;;
58758;SDS011;46777;47.482;19.054;2022-10-14T03:53:27;30.52;;;27.27;;
58758;SDS011;46777;47.482;19.054;2022-10-14T03:56:12;29.27;;;26.17;;
58758;SDS011;46777;47.482;19.054;2022-10-14T03:58:56;30.48;;;27.45;;
58758;SDS011;46777;47.482;19.054;2022-10-14T04:01:40;29.65;;;26.55;;
58758;SDS011;46777;47.482;19.054;2022-10-14T04:04:24;30.50;;;26.80;;
58758;SDS011;46777;47.482;19.054;2022-10-14T04:07:08;28.83;;;25.77;;
58758;SDS011;46777;47.482;19.054;2022-10-14T04:09:53;28.55;;;25.42;;
58758;SDS011;46777;47.482;19.054;2022-10-14T04:12:37;30.20;;;27.15;;
58758;SDS011;46777;47.482;19.054;2022-10-14T04:15:23;30.00;;;27.00;;
58758;SDS011;46777;47.482;19.054;2022-10-14T04:18:07;29.35;;;26.38;;
58758;SDS011;46777;47.482;19.054;2022-10-14T04:20:51;27.45;;;24.55;;
58758;SDS011;46777;47.482;19.054;2022-10-14T04:23:37;29.67;;;25.77;;
58758;SDS011;46777;47.482;19.054;2022-10-14T04:26:21;28.92;;;26.02;;
58758;SDS011;46777;47.482;19.054;2022-10-14T04:29:05;29.50;;;26.30;;
58758;SDS011;46777;47.482;19.054;2022-10-14T04:31:49;28.55;;;25.52;;
58758;SDS011;46777;47.482;19.054;2022-10-14T04:34:34;29.13;;;26.10;;
58758;SDS011;46777;47.482;19.054;2022-10-14T04:37:18;29.52;;;26.42;;
58758;SDS011;46777;47.482;19.054;2022-10-14T04:40:02;28.77;;;25.88;;
58758;SDS011;46777;47.482;19.054;2022-10-14T04:42:47;28.20;;;25.20;;
58758;SDS011;46777;47.482;19.054;2022-10-14T04:45:31;27.70;;;24.85;;
58758;SDS011;46777;47.482;19.054;2022-10-14T04:48:15;30.08;;;26.75;;
58758;SDS011;46777;47.482;19.054;2022-10-14T04:51:01;28.45;;;25.45;;
58758;SDS011;46777;47.482;19.054;2022-10-14T04:53:45;27.98;;;24.95;;
58758;SDS011;46777;47.482;19.054;2022-10-14T04:56:29;28.83;;;25.63;;
58758;SDS011;46777;47.482;19.054;2022-10-14T04:59:13;27.73;;;24.92;;
58758;SDS011;46777;47.482;19.054;2022-10-14T05:01:58;28.48;;;25.60;;
58758;SDS011;46777;47.482;19.054;2022-10-14T05:04:42;29.00;;;24.90;;
58758;SDS011;46777;47.482;19.054;2022-10-14T05:07:26;29.42;;;26.33;;
58758;SDS011;46777;47.482;19.054;2022-10-14T05:10:11;29.73;;;26.15;;
58758;SDS011;46777;47.482;19.054;2022-10-14T05:12:55;30.55;;;25.33;;
58758;SDS011;46777;47.482;19.054;2022-10-14T05:15:40;30.30;;;27.23;;
58758;SDS011;46777;47.482;19.054;2022-10-14T05:18:24;28.98;;;26.13;;
58758;SDS011;46777;47.482;19.054;2022-10-14T05:21:08;30.05;;;26.85;;
58758;SDS011;46777;47.482;19.054;2022-10-14T05:23:52;29.90;;;26.73;;
58758;SDS011;46777;47.482;19.054;2022-10-14T05:26:36;30.45;;;27.25;;
58758;SDS011;46777;47.482;19.054;2022-10-14T05:29:21;31.92;;;28.52;;
58758;SDS011;46777;47.482;19.054;2022-10-14T05:32:06;31.05;;;27.80;;
58758;SDS011;46777;47.482;19.054;2022-10-14T05:34:51;31.92;;;28.27;;
58758;SDS011;46777;47.482;19.054;2022-10-14T05:37:35;33.65;;;29.15;;
58758;SDS011;46777;47.482;19.054;2022-10-14T05:40:19;30.52;;;27.30;;
58758;SDS011;46777;47.482;19.054;2022-10-14T05:43:03;32.83;;;29.40;;
58758;SDS011;46777;47.482;19.054;2022-10-14T05:45:48;33.80;;;29.35;;
58758;SDS011;46777;47.482;19.054;2022-10-14T05:48:32;32.30;;;29.08;;
58758;SDS011;46777;47.482;19.054;2022-10-14T05:51:17;32.70;;;29.40;;
58758;SDS011;46777;47.482;19.054;2022-10-14T05:54:04;33.22;;;29.20;;
58758;SDS011;46777;47.482;19.054;2022-10-14T05:56:49;33.90;;;30.27;;
58758;SDS011;46777;47.482;19.054;2022-10-14T05:59:33;35.22;;;31.42;;
58758;SDS011;46777;47.482;19.054;2022-10-14T06:02:18;34.30;;;30.65;;
58758;SDS011;46777;47.482;19.054;2022-10-14T06:05:02;33.35;;;29.42;;
58758;SDS011;46777;47.482;19.054;2022-10-14T06:07:46;32.17;;;29.02;;
58758;SDS011;46777;47.482;19.054;2022-10-14T06:10:30;32.78;;;29.30;;
58758;SDS011;46777;47.482;19.054;2022-10-14T06:13:15;33.75;;;29.27;;
58758;SDS011;46777;47.482;19.054;2022-10-14T06:16:06;33.85;;;30.55;;
58758;SDS011;46777;47.482;19.054;2022-10-14T06:18:51;34.25;;;29.00;;
58758;SDS011;46777;47.482;19.054;2022-10-14T06:21:35;34.25;;;28.60;;
58758;SDS011;46777;47.482;19.054;2022-10-14T06:24:19;33.50;;;29.75;;
58758;SDS011;46777;47.482;19.054;2022-10-14T06:27:03;32.63;;;29.25;;
58758;SDS011;46777;47.482;19.054;2022-10-14T06:29:47;34.53;;;29.80;;
58758;SDS011;46777;47.482;19.054;2022-10-14T06:32:32;33.80;;;30.10;;
58758;SDS011;46777;47.482;19.054;2022-10-14T06:35:16;39.05;;;34.90;;
58758;SDS011;46777;47.482;19.054;2022-10-14T06:38:00;38.53;;;34.20;;
58758;SDS011;46777;47.482;19.054;2022-10-14T06:40:45;47.22;;;38.05;;
58758;SDS011;46777;47.482;19.054;2022-10-14T06:43:29;35.28;;;31.48;;
58758;SDS011;46777;47.482;19.054;2022-10-14T06:46:13;36.67;;;32.67;;
58758;SDS011;46777;47.482;19.054;2022-10-14T06:48:58;37.28;;;32.95;;
58758;SDS011;46777;47.482;19.054;2022-10-14T06:51:42;43.55;;;35.58;;
58758;SDS011;46777;47.482;19.054;2022-10-14T06:54:26;39.35;;;32.75;;
58758;SDS011;46777;47.482;19.054;2022-10-14T06:57:10;34.33;;;30.45;;
58758;SDS011;46777;47.482;19.054;2022-10-14T06:59:54;33.75;;;29.73;;
58758;SDS011;46777;47.482;19.054;2022-10-14T07:02:39;33.28;;;29.80;;
58758;SDS011;46777;47.482;19.054;2022-10-14T07:05:23;35.10;;;30.02;;
58758;SDS011;46777;47.482;19.054;2022-10-14T07:08:08;34.83;;;30.73;;
58758;SDS011;46777;47.482;19.054;2022-10-14T07:10:52;37.63;;;30.63;;
58758;SDS011;46777;47.482;19.054;2022-10-14T07:13:36;34.58;;;29.98;;
58758;SDS011;46777;47.482;19.054;2022-10-14T07:16:21;38.15;;;31.63;;
58758;SDS011;46777;47.482;19.054;2022-10-14T07:19:06;34.10;;;30.30;;
58758;SDS011;46777;47.482;19.054;2022-10-14T07:21:50;34.53;;;30.65;;
58758;SDS011;46777;47.482;19.054;2022-10-14T07:24:34;32.55;;;28.83;;
58758;SDS011;46777;47.482;19.054;2022-10-14T07:27:18;35.58;;;31.30;;
58758;SDS011;46777;47.482;19.054;2022-10-14T07:30:03;34.58;;;30.95;;
58758;SDS011;46777;47.482;19.054;2022-10-14T07:32:48;36.08;;;29.70;;
58758;SDS011;46777;47.482;19.054;2022-10-14T07:35:32;35.70;;;29.80;;
58758;SDS011;46777;47.482;19.054;2022-10-14T07:38:17;40.50;;;31.10;;
58758;SDS011;46777;47.482;19.054;2022-10-14T07:41:02;34.55;;;30.17;;
58758;SDS011;46777;47.482;19.054;2022-10-14T07:43:51;38.25;;;29.95;;
58758;SDS011;46777;47.482;19.054;2022-10-14T07:46:38;33.78;;;29.88;;
58758;SDS011;46777;47.482;19.054;2022-10-14T07:49:22;34.92;;;29.92;;
58758;SDS011;46777;47.482;19.054;2022-10-14T07:52:06;33.70;;;29.35;;
58758;SDS011;46777;47.482;19.054;2022-10-14T07:54:51;32.03;;;28.60;;
58758;SDS011;46777;47.482;19.054;2022-10-14T07:57:35;32.05;;;28.75;;
58758;SDS011;46777;47.482;19.054;2022-10-14T08:00:20;33.92;;;28.65;;
58758;SDS011;46777;47.482;19.054;2022-10-14T08:03:04;40.20;;;30.35;;
58758;SDS011;46777;47.482;19.054;2022-10-14T08:05:48;31.25;;;28.13;;
58758;SDS011;46777;47.482;19.054;2022-10-14T08:08:33;31.23;;;26.75;;
58758;SDS011;46777;47.482;19.054;2022-10-14T08:11:19;31.55;;;28.45;;
58758;SDS011;46777;47.482;19.054;2022-10-14T08:14:03;30.30;;;27.10;;
58758;SDS011;46777;47.482;19.054;2022-10-14T08:16:48;27.83;;;24.92;;
58758;SDS011;46777;47.482;19.054;2022-10-14T08:19:32;28.83;;;25.83;;
58758;SDS011;46777;47.482;19.054;2022-10-14T08:22:16;28.02;;;25.13;;
58758;SDS011;46777;47.482;19.054;2022-10-14T08:25:00;28.08;;;25.25;;
58758;SDS011;46777;47.482;19.054;2022-10-14T08:27:47;27.95;;;25.08;;
58758;SDS011;46777;47.482;19.054;2022-10-14T08:30:32;29.88;;;25.83;;
58758;SDS011;46777;47.482;19.054;2022-10-14T08:33:16;27.65;;;24.95;;
58758;SDS011;46777;47.482;19.054;2022-10-14T08:36:00;27.67;;;24.90;;
58758;SDS011;46777;47.482;19.054;2022-10-14T08:38:44;27.35;;;24.65;;
58758;SDS011;46777;47.482;19.054;2022-10-14T08:44:50;26.50;;;23.55;;
58758;SDS011;46777;47.482;19.054;2022-10-14T08:47:36;26.08;;;23.27;;
58758;SDS011;46777;47.482;19.054;2022-10-14T08:50:40;27.55;;;22.85;;
58758;SDS011;46777;47.482;19.054;2022-10-14T08:53:27;25.15;;;22.63;;
58758;SDS011;46777;47.482;19.054;2022-10-14T08:56:13;27.05;;;24.35;;
58758;SDS011;46777;47.482;19.054;2022-10-14T08:58:59;26.65;;;23.98;;
58758;SDS011;46777;47.482;19.054;2022-10-14T09:01:51;26.33;;;23.70;;
58758;SDS011;46777;47.482;19.054;2022-10-14T09:04:36;27.80;;;25.03;;
58758;SDS011;46777;47.482;19.054;2022-10-14T09:07:21;26.95;;;24.35;;
58758;SDS011;46777;47.482;19.054;2022-10-14T09:10:06;27.50;;;24.58;;
58758;SDS011;46777;47.482;19.054;2022-10-14T09:12:51;27.33;;;24.55;;
58758;SDS011;46777;47.482;19.054;2022-10-14T09:15:42;26.85;;;23.92;;
58758;SDS011;46777;47.482;19.054;2022-10-14T09:18:38;26.05;;;23.42;;
58758;SDS011;46777;47.482;19.054;2022-10-14T09:21:36;26.40;;;22.40;;
58758;SDS011;46777;47.482;19.054;2022-10-14T09:24:22;27.00;;;24.10;;
58758;SDS011;46777;47.482;19.054;2022-10-14T09:27:17;25.65;;;22.88;;
58758;SDS011;46777;47.482;19.054;2022-10-14T09:30:04;29.25;;;24.77;;
58758;SDS011;46777;47.482;19.054;2022-10-14T09:32:53;25.98;;;23.42;;
58758;SDS011;46777;47.482;19.054;2022-10-14T09:35:39;26.80;;;23.83;;
58758;SDS011;46777;47.482;19.054;2022-10-14T09:38:24;26.63;;;23.77;;
58758;SDS011;46777;47.482;19.054;2022-10-14T09:41:09;28.10;;;24.83;;
58758;SDS011;46777;47.482;19.054;2022-10-14T09:44:15;26.98;;;23.02;;
58758;SDS011;46777;47.482;19.054;2022-10-14T09:47:02;25.70;;;23.02;;
58758;SDS011;46777;47.482;19.054;2022-10-14T09:49:48;24.65;;;21.83;;
58758;SDS011;46777;47.482;19.054;2022-10-14T09:52:32;24.48;;;21.73;;
58758;SDS011;46777;47.482;19.054;2022-10-14T09:55:18;26.08;;;23.48;;
58758;SDS011;46777;47.482;19.054;2022-10-14T09:58:04;24.83;;;21.48;;
58758;SDS011;46777;47.482;19.054;2022-10-14T10:00:49;27.15;;;22.10;;
58758;SDS011;46777;47.482;19.054;2022-10-14T10:03:38;24.40;;;21.90;;
58758;SDS011;46777;47.482;19.054;2022-10-14T10:06:25;24.80;;;22.38;;
58758;SDS011;46777;47.482;19.054;2022-10-14T10:09:16;23.38;;;21.15;;
58758;SDS011;46777;47.482;19.054;2022-10-14T10:12:13;23.60;;;21.38;;
58758;SDS011;46777;47.482;19.054;2022-10-14T10:15:05;24.00;;;21.55;;
58758;SDS011;46777;47.482;19.054;2022-10-14T10:17:50;23.20;;;20.77;;
58758;SDS011;46777;47.482;19.054;2022-10-14T10:20:34;52.08;;;22.50;;
58758;SDS011;46777;47.482;19.054;2022-10-14T10:23:23;23.45;;;20.95;;
58758;SDS011;46777;47.482;19.054;2022-10-14T10:26:19;20.95;;;18.75;;
58758;SDS011;46777;47.482;19.054;2022-10-14T10:29:09;24.92;;;20.50;;
58758;SDS011;46777;47.482;19.054;2022-10-14T10:32:08;26.52;;;21.45;;
58758;SDS011;46777;47.482;19.054;2022-10-14T10:38:14;21.23;;;19.20;;
58758;SDS011;46777;47.482;19.054;2022-10-14T10:41:09;20.92;;;18.80;;
58758;SDS011;46777;47.482;19.054;2022-10-14T10:50:01;18.67;;;16.90;;
58758;SDS011;46777;47.482;19.054;2022-10-14T10:52:58;18.98;;;17.08;;
58758;SDS011;46777;47.482;19.054;2022-10-14T10:55:50;19.42;;;16.92;;
58758;SDS011;46777;47.482;19.054;2022-10-14T11:07:21;18.50;;;16.63;;
58758;SDS011;46777;47.482;19.054;2022-10-14T11:13:39;19.55;;;16.13;;
58758;SDS011;46777;47.482;19.054;2022-10-14T11:19:15;18.73;;;17.13;;
58758;SDS011;46777;47.482;19.054;2022-10-14T11:33:59;18.83;;;16.60;;
58758;SDS011;46777;47.482;19.054;2022-10-14T11:36:51;18.63;;;16.75;;
58758;SDS011;46777;47.482;19.054;2022-10-14T11:39:41;16.00;;;14.38;;
58758;SDS011;46777;47.482;19.054;2022-10-14T11:45:29;16.48;;;14.98;;
58758;SDS011;46777;47.482;19.054;2022-10-14T11:48:32;16.15;;;14.80;;
58758;SDS011;46777;47.482;19.054;2022-10-14T11:51:30;16.40;;;15.00;;
58758;SDS011;46777;47.482;19.054;2022-10-14T11:57:11;16.48;;;14.90;;
58758;SDS011;46777;47.482;19.054;2022-10-14T12:00:00;15.88;;;14.52;;
58758;SDS011;46777;47.482;19.054;2022-10-14T12:02:54;18.35;;;16.50;;
58758;SDS011;46777;47.482;19.054;2022-10-14T12:05:51;17.67;;;16.02;;
58758;SDS011;46777;47.482;19.054;2022-10-14T12:08:42;17.33;;;15.80;;
58758;SDS011;46777;47.482;19.054;2022-10-14T12:11:33;18.80;;;17.00;;
58758;SDS011;46777;47.482;19.054;2022-10-14T12:14:19;19.10;;;17.20;;
58758;SDS011;46777;47.482;19.054;2022-10-14T12:17:08;19.23;;;17.38;;
58758;SDS011;46777;47.482;19.054;2022-10-14T12:20:00;18.50;;;16.55;;
58758;SDS011;46777;47.482;19.054;2022-10-14T12:22:46;24.52;;;16.13;;
58758;SDS011;46777;47.482;19.054;2022-10-14T12:26:09;18.65;;;17.02;;
58758;SDS011;46777;47.482;19.054;2022-10-14T12:28:43;18.02;;;16.33;;
58758;SDS011;46777;47.482;19.054;2022-10-14T12:34:22;18.48;;;16.75;;
58758;SDS011;46777;47.482;19.054;2022-10-14T12:40:22;17.63;;;16.05;;
58758;SDS011;46777;47.482;19.054;2022-10-14T12:43:17;17.27;;;15.68;;
58758;SDS011;46777;47.482;19.054;2022-10-14T12:46:13;18.55;;;16.73;;
58758;SDS011;46777;47.482;19.054;2022-10-14T12:48:58;19.75;;;17.85;;
58758;SDS011;46777;47.482;19.054;2022-10-14T12:51:53;19.25;;;17.45;;
58758;SDS011;46777;47.482;19.054;2022-10-14T12:54:38;20.40;;;18.55;;
58758;SDS011;46777;47.482;19.054;2022-10-14T12:57:29;20.45;;;18.40;;
58758;SDS011;46777;47.482;19.054;2022-10-14T13:03:05;22.23;;;20.25;;
58758;SDS011;46777;47.482;19.054;2022-10-14T13:17:44;22.23;;;20.08;;
58758;SDS011;46777;47.482;19.054;2022-10-14T13:23:26;21.08;;;19.25;;
58758;SDS011;46777;47.482;19.054;2022-10-14T13:40:47;20.85;;;19.05;;
58758;SDS011;46777;47.482;19.054;2022-10-14T13:43:36;21.55;;;19.55;;
58758;SDS011;46777;47.482;19.054;2022-10-14T13:46:26;20.38;;;18.50;;
58758;SDS011;46777;47.482;19.054;2022-10-14T13:49:14;20.80;;;18.75;;
58758;SDS011;46777;47.482;19.054;2022-10-14T13:52:00;21.00;;;19.15;;
58758;SDS011;46777;47.482;19.054;2022-10-14T13:54:47;22.05;;;19.92;;
58758;SDS011;46777;47.482;19.054;2022-10-14T13:57:31;21.70;;;19.70;;
58758;SDS011;46777;47.482;19.054;2022-10-14T14:00:32;20.27;;;18.52;;
58758;SDS011;46777;47.482;19.054;2022-10-14T14:06:02;19.13;;;17.25;;
58758;SDS011;46777;47.482;19.054;2022-10-14T14:08:53;19.88;;;18.05;;
58758;SDS011;46777;47.482;19.054;2022-10-14T14:11:38;19.52;;;17.83;;
58758;SDS011;46777;47.482;19.054;2022-10-14T14:14:24;19.95;;;18.25;;
58758;SDS011;46777;47.482;19.054;2022-10-14T14:17:18;19.70;;;17.70;;
58758;SDS011;46777;47.482;19.054;2022-10-14T14:20:08;22.20;;;20.20;;
58758;SDS011;46777;47.482;19.054;2022-10-14T14:22:53;22.42;;;20.55;;
58758;SDS011;46777;47.482;19.054;2022-10-14T14:25:37;20.30;;;18.50;;
58758;SDS011;46777;47.482;19.054;2022-10-14T14:28:21;23.33;;;21.10;;
58758;SDS011;46777;47.482;19.054;2022-10-14T14:31:10;23.70;;;21.45;;
58758;SDS011;46777;47.482;19.054;2022-10-14T14:33:57;23.30;;;21.30;;
58758;SDS011;46777;47.482;19.054;2022-10-14T14:36:43;23.65;;;21.48;;
58758;SDS011;46777;47.482;19.054;2022-10-14T14:39:28;23.30;;;21.10;;
58758;SDS011;46777;47.482;19.054;2022-10-14T14:42:12;23.95;;;21.55;;
58758;SDS011;46777;47.482;19.054;2022-10-14T14:44:58;24.13;;;21.98;;
58758;SDS011;46777;47.482;19.054;2022-10-14T14:47:44;23.48;;;21.17;;
58758;SDS011;46777;47.482;19.054;2022-10-14T14:50:32;22.90;;;20.80;;
58758;SDS011;46777;47.482;19.054;2022-10-14T14:53:19;23.63;;;21.10;;
58758;SDS011;46777;47.482;19.054;2022-10-14T14:56:05;23.60;;;21.55;;
58758;SDS011;46777;47.482;19.054;2022-10-14T14:58:51;23.92;;;21.73;;
58758;SDS011;46777;47.482;19.054;2022-10-14T15:01:35;24.20;;;22.15;;
58758;SDS011;46777;47.482;19.054;2022-10-14T15:04:20;23.30;;;21.05;;
58758;SDS011;46777;47.482;19.054;2022-10-14T15:07:15;24.08;;;21.70;;
58758;SDS011;46777;47.482;19.054;2022-10-14T15:10:02;25.20;;;22.75;;
58758;SDS011;46777;47.482;19.054;2022-10-14T15:12:54;23.60;;;21.30;;
58758;SDS011;46777;47.482;19.054;2022-10-14T15:15:39;24.33;;;22.15;;
58758;SDS011;46777;47.482;19.054;2022-10-14T15:18:36;24.92;;;22.55;;
58758;SDS011;46777;47.482;19.054;2022-10-14T15:21:23;25.08;;;22.63;;
58758;SDS011;46777;47.482;19.054;2022-10-14T15:24:15;24.55;;;22.08;;
58758;SDS011;46777;47.482;19.054;2022-10-14T15:30:22;24.77;;;22.38;;
58758;SDS011;46777;47.482;19.054;2022-10-14T15:33:11;25.98;;;23.55;;
58758;SDS011;46777;47.482;19.054;2022-10-14T15:35:58;26.13;;;23.52;;
58758;SDS011;46777;47.482;19.054;2022-10-14T15:38:42;25.48;;;22.88;;
58758;SDS011;46777;47.482;19.054;2022-10-14T15:41:27;25.13;;;22.58;;
58758;SDS011;46777;47.482;19.054;2022-10-14T15:44:11;25.50;;;22.90;;
58758;SDS011;46777;47.482;19.054;2022-10-14T15:46:55;25.52;;;22.92;;
58758;SDS011;46777;47.482;19.054;2022-10-14T15:49:58;25.67;;;23.08;;
58758;SDS011;46777;47.482;19.054;2022-10-14T15:52:43;27.48;;;24.45;;
58758;SDS011;46777;47.482;19.054;2022-10-14T15:55:28;25.88;;;23.02;;
58758;SDS011;46777;47.482;19.054;2022-10-14T15:58:13;25.60;;;22.95;;
58758;SDS011;46777;47.482;19.054;2022-10-14T16:00:58;25.70;;;23.05;;
58758;SDS011;46777;47.482;19.054;2022-10-14T16:03:43;25.25;;;22.75;;
58758;SDS011;46777;47.482;19.054;2022-10-14T16:06:27;25.33;;;22.60;;
58758;SDS011;46777;47.482;19.054;2022-10-14T16:09:15;25.70;;;23.23;;
58758;SDS011;46777;47.482;19.054;2022-10-14T16:12:00;26.80;;;24.27;;
58758;SDS011;46777;47.482;19.054;2022-10-14T16:14:44;26.05;;;23.40;;
58758;SDS011;46777;47.482;19.054;2022-10-14T16:17:28;25.38;;;22.67;;
58758;SDS011;46777;47.482;19.054;2022-10-14T16:20:13;25.65;;;23.02;;
58758;SDS011;46777;47.482;19.054;2022-10-14T16:22:57;27.13;;;24.42;;
58758;SDS011;46777;47.482;19.054;2022-10-14T16:25:45;26.77;;;24.17;;
58758;SDS011;46777;47.482;19.054;2022-10-14T16:28:30;27.60;;;24.70;;
58758;SDS011;46777;47.482;19.054;2022-10-14T16:31:14;26.98;;;24.27;;
58758;SDS011;46777;47.482;19.054;2022-10-14T16:33:58;26.63;;;23.90;;
58758;SDS011;46777;47.482;19.054;2022-10-14T16:36:43;27.40;;;24.48;;
58758;SDS011;46777;47.482;19.054;2022-10-14T16:39:27;28.85;;;25.77;;
58758;SDS011;46777;47.482;19.054;2022-10-14T16:42:11;27.70;;;24.90;;
58758;SDS011;46777;47.482;19.054;2022-10-14T16:44:56;29.27;;;26.17;;
58758;SDS011;46777;47.482;19.054;2022-10-14T16:47:40;28.25;;;25.33;;
58758;SDS011;46777;47.482;19.054;2022-10-14T16:50:24;28.27;;;25.27;;
58758;SDS011;46777;47.482;19.054;2022-10-14T16:53:09;29.23;;;26.08;;
58758;SDS011;46777;47.482;19.054;2022-10-14T16:56:13;29.52;;;26.42;;
58758;SDS011;46777;47.482;19.054;2022-10-14T16:59:17;28.60;;;25.67;;
58758;SDS011;46777;47.482;19.054;2022-10-14T17:02:01;29.63;;;26.13;;
58758;SDS011;46777;47.482;19.054;2022-10-14T17:04:46;31.48;;;26.60;;
58758;SDS011;46777;47.482;19.054;2022-10-14T17:07:32;28.60;;;25.63;;
58758;SDS011;46777;47.482;19.054;2022-10-14T17:10:17;29.13;;;26.00;;
58758;SDS011;46777;47.482;19.054;2022-10-14T17:13:02;31.90;;;24.98;;
58758;SDS011;46777;47.482;19.054;2022-10-14T17:15:46;30.10;;;26.45;;
58758;SDS011;46777;47.482;19.054;2022-10-14T17:18:30;27.80;;;24.83;;
58758;SDS011;46777;47.482;19.054;2022-10-14T17:21:15;32.05;;;26.35;;
58758;SDS011;46777;47.482;19.054;2022-10-14T17:24:00;30.13;;;26.88;;
58758;SDS011;46777;47.482;19.054;2022-10-14T17:26:45;31.35;;;27.50;;
58758;SDS011;46777;47.482;19.054;2022-10-14T17:29:29;30.63;;;27.60;;
58758;SDS011;46777;47.482;19.054;2022-10-14T17:32:14;31.35;;;28.15;;
58758;SDS011;46777;47.482;19.054;2022-10-14T17:34:58;29.70;;;26.65;;
58758;SDS011;46777;47.482;19.054;2022-10-14T17:37:42;28.77;;;25.88;;
58758;SDS011;46777;47.482;19.054;2022-10-14T17:40:27;31.00;;;27.75;;
58758;SDS011;46777;47.482;19.054;2022-10-14T17:43:16;31.00;;;27.75;;
58758;SDS011;46777;47.482;19.054;2022-10-14T17:46:10;33.33;;;28.75;;
58758;SDS011;46777;47.482;19.054;2022-10-14T17:48:56;31.70;;;27.35;;
58758;SDS011;46777;47.482;19.054;2022-10-14T17:51:40;32.92;;;29.40;;
58758;SDS011;46777;47.482;19.054;2022-10-14T17:54:24;33.65;;;30.00;;
58758;SDS011;46777;47.482;19.054;2022-10-14T17:57:08;34.00;;;30.35;;